sensor_id;sensor_type;location;lat;lon;timestamp;temperature;humidity
41756;DHT22;27435;48.480;9.258;2023-04-06T00:00:56;0.30;89.50
41756;DHT22;27435;48.480;9.258;2023-04-06T00:03:21;0.40;88.90
41756;DHT22;27435;48.480;9.258;2023-04-06T00:05:48;0.40;89.50
41756;DHT22;27435;48.480;9.258;2023-04-06T00:08:14;0.40;88.80
41756;DHT22;27435;48.480;9.258;2023-04-06T00:10:39;0.40;88.80
41756;DHT22;27435;48.480;9.258;2023-04-06T00:13:05;0.40;88.50
41756;DHT22;27435;48.480;9.258;2023-04-06T00:15:32;0.30;88.50
41756;DHT22;27435;48.480;9.258;2023-04-06T00:17:57;0.20;88.40
41756;DHT22;27435;48.480;9.258;2023-04-06T00:20:23;0.30;88.60
41756;DHT22;27435;48.480;9.258;2023-04-06T00:22:49;0.40;88.00
41756;DHT22;27435;48.480;9.258;2023-04-06T00:25:14;0.40;88.80
41756;DHT22;27435;48.480;9.258;2023-04-06T00:27:41;0.30;88.40
41756;DHT22;27435;48.480;9.258;2023-04-06T00:30:07;0.40;89.10
41756;DHT22;27435;48.480;9.258;2023-04-06T00:32:34;0.20;89.50
41756;DHT22;27435;48.480;9.258;2023-04-06T00:35:02;0.10;90.00
41756;DHT22;27435;48.480;9.258;2023-04-06T00:37:28;0.10;90.30
41756;DHT22;27435;48.480;9.258;2023-04-06T00:39:53;-0.10;90.30
41756;DHT22;27435;48.480;9.258;2023-04-06T00:42:21;0.10;90.00
41756;DHT22;27435;48.480;9.258;2023-04-06T00:44:55;0.30;88.90
41756;DHT22;27435;48.480;9.258;2023-04-06T00:47:23;0.40;87.90
41756;DHT22;27435;48.480;9.258;2023-04-06T00:49:50;0.50;87.60
41756;DHT22;27435;48.480;9.258;2023-04-06T00:52:16;0.70;86.80
41756;DHT22;27435;48.480;9.258;2023-04-06T00:54:42;0.70;86.20
41756;DHT22;27435;48.480;9.258;2023-04-06T00:57:08;0.70;86.50
41756;DHT22;27435;48.480;9.258;2023-04-06T00:59:33;0.30;87.40
41756;DHT22;27435;48.480;9.258;2023-04-06T01:01:59;0.50;87.00
41756;DHT22;27435;48.480;9.258;2023-04-06T01:04:26;0.80;85.20
41756;DHT22;27435;48.480;9.258;2023-04-06T01:06:52;1.00;85.20
41756;DHT22;27435;48.480;9.258;2023-04-06T01:09:18;0.90;85.90
41756;DHT22;27435;48.480;9.258;2023-04-06T01:11:43;0.70;86.70
41756;DHT22;27435;48.480;9.258;2023-04-06T01:14:10;0.60;86.90
41756;DHT22;27435;48.480;9.258;2023-04-06T01:16:36;0.50;87.60
41756;DHT22;27435;48.480;9.258;2023-04-06T01:19:10;0.40;88.30
41756;DHT22;27435;48.480;9.258;2023-04-06T01:21:37;0.30;88.80
41756;DHT22;27435;48.480;9.258;2023-04-06T01:24:03;0.30;88.40
41756;DHT22;27435;48.480;9.258;2023-04-06T01:26:29;0.30;87.90
41756;DHT22;27435;48.480;9.258;2023-04-06T01:28:56;0.30;87.90
41756;DHT22;27435;48.480;9.258;2023-04-06T01:31:22;0.30;87.90
41756;DHT22;27435;48.480;9.258;2023-04-06T01:33:48;0.40;87.40
41756;DHT22;27435;48.480;9.258;2023-04-06T01:36:14;0.40;86.50
41756;DHT22;27435;48.480;9.258;2023-04-06T01:38:40;0.40;86.70
41756;DHT22;27435;48.480;9.258;2023-04-06T01:41:07;0.40;87.00
41756;DHT22;27435;48.480;9.258;2023-04-06T01:43:33;0.50;87.10
41756;DHT22;27435;48.480;9.258;2023-04-06T01:45:59;0.50;86.30
41756;DHT22;27435;48.480;9.258;2023-04-06T01:48:25;0.50;85.70
41756;DHT22;27435;48.480;9.258;2023-04-06T01:50:51;0.50;85.70
41756;DHT22;27435;48.480;9.258;2023-04-06T01:53:17;0.60;85.70
41756;DHT22;27435;48.480;9.258;2023-04-06T01:55:42;0.50;85.90
41756;DHT22;27435;48.480;9.258;2023-04-06T01:58:08;0.20;86.70
41756;DHT22;27435;48.480;9.258;2023-04-06T02:00:34;0.10;87.80
41756;DHT22;27435;48.480;9.258;2023-04-06T02:03:00;0.10;87.70
41756;DHT22;27435;48.480;9.258;2023-04-06T02:05:26;0.00;87.60
41756;DHT22;27435;48.480;9.258;2023-04-06T02:07:52;0.00;88.40
41756;DHT22;27435;48.480;9.258;2023-04-06T02:10:18;-0.10;89.00
41756;DHT22;27435;48.480;9.258;2023-04-06T02:12:43;-0.10;89.20
41756;DHT22;27435;48.480;9.258;2023-04-06T02:15:09;-0.30;90.00
41756;DHT22;27435;48.480;9.258;2023-04-06T02:17:35;-0.30;89.40
41756;DHT22;27435;48.480;9.258;2023-04-06T02:20:01;-0.30;89.90
41756;DHT22;27435;48.480;9.258;2023-04-06T02:22:26;-0.30;89.30
41756;DHT22;27435;48.480;9.258;2023-04-06T02:24:52;-0.40;89.50
41756;DHT22;27435;48.480;9.258;2023-04-06T02:27:18;-0.20;89.20
41756;DHT22;27435;48.480;9.258;2023-04-06T02:29:43;-0.50;90.10
41756;DHT22;27435;48.480;9.258;2023-04-06T02:32:09;-0.40;90.60
41756;DHT22;27435;48.480;9.258;2023-04-06T02:34:35;-0.50;90.00
41756;DHT22;27435;48.480;9.258;2023-04-06T02:37:00;-0.60;90.60
41756;DHT22;27435;48.480;9.258;2023-04-06T02:39:26;-0.70;90.80
41756;DHT22;27435;48.480;9.258;2023-04-06T02:41:51;-0.80;90.80
41756;DHT22;27435;48.480;9.258;2023-04-06T02:44:18;-0.90;91.90
41756;DHT22;27435;48.480;9.258;2023-04-06T02:46:44;-0.90;91.60
41756;DHT22;27435;48.480;9.258;2023-04-06T02:49:10;-1.00;92.70
41756;DHT22;27435;48.480;9.258;2023-04-06T02:51:35;-1.00;92.80
41756;DHT22;27435;48.480;9.258;2023-04-06T02:54:01;-1.10;92.70
41756;DHT22;27435;48.480;9.258;2023-04-06T02:56:26;-1.10;93.80
41756;DHT22;27435;48.480;9.258;2023-04-06T02:58:52;-1.00;93.30
41756;DHT22;27435;48.480;9.258;2023-04-06T03:01:18;-0.90;93.60
41756;DHT22;27435;48.480;9.258;2023-04-06T03:03:43;-1.00;93.40
41756;DHT22;27435;48.480;9.258;2023-04-06T03:06:09;-1.10;93.90
41756;DHT22;27435;48.480;9.258;2023-04-06T03:08:35;-1.30;94.70
41756;DHT22;27435;48.480;9.258;2023-04-06T03:11:00;-1.30;95.40
41756;DHT22;27435;48.480;9.258;2023-04-06T03:13:26;-1.30;94.70
41756;DHT22;27435;48.480;9.258;2023-04-06T03:15:52;-1.40;94.70
41756;DHT22;27435;48.480;9.258;2023-04-06T03:18:21;-1.40;95.20
41756;DHT22;27435;48.480;9.258;2023-04-06T03:20:48;-1.40;94.90
41756;DHT22;27435;48.480;9.258;2023-04-06T03:23:14;-1.40;94.70
41756;DHT22;27435;48.480;9.258;2023-04-06T03:25:39;-1.40;94.20
41756;DHT22;27435;48.480;9.258;2023-04-06T03:28:05;-1.40;94.10
41756;DHT22;27435;48.480;9.258;2023-04-06T03:30:31;-1.40;94.00
41756;DHT22;27435;48.480;9.258;2023-04-06T03:32:57;-1.50;94.80
41756;DHT22;27435;48.480;9.258;2023-04-06T03:35:24;-1.50;95.00
41756;DHT22;27435;48.480;9.258;2023-04-06T03:37:49;-1.50;95.10
41756;DHT22;27435;48.480;9.258;2023-04-06T03:40:15;-1.50;95.20
41756;DHT22;27435;48.480;9.258;2023-04-06T03:42:41;-1.70;95.80
41756;DHT22;27435;48.480;9.258;2023-04-06T03:45:07;-1.70;96.00
41756;DHT22;27435;48.480;9.258;2023-04-06T03:47:33;-1.80;96.30
41756;DHT22;27435;48.480;9.258;2023-04-06T03:49:58;-1.80;96.60
41756;DHT22;27435;48.480;9.258;2023-04-06T03:52:24;-1.60;96.80
41756;DHT22;27435;48.480;9.258;2023-04-06T03:54:50;-1.60;96.00
41756;DHT22;27435;48.480;9.258;2023-04-06T03:57:15;-1.40;96.00
41756;DHT22;27435;48.480;9.258;2023-04-06T03:59:41;-1.50;95.70
41756;DHT22;27435;48.480;9.258;2023-04-06T04:02:07;-1.60;96.80
41756;DHT22;27435;48.480;9.258;2023-04-06T04:04:32;-1.70;97.20
41756;DHT22;27435;48.480;9.258;2023-04-06T04:06:58;-1.80;97.60
41756;DHT22;27435;48.480;9.258;2023-04-06T04:09:24;-1.90;98.30
41756;DHT22;27435;48.480;9.258;2023-04-06T04:11:49;-1.90;98.30
41756;DHT22;27435;48.480;9.258;2023-04-06T04:14:15;-1.90;98.60
41756;DHT22;27435;48.480;9.258;2023-04-06T04:16:41;-1.90;98.70
41756;DHT22;27435;48.480;9.258;2023-04-06T04:19:07;-1.90;98.80
41756;DHT22;27435;48.480;9.258;2023-04-06T04:21:33;-1.90;98.70
41756;DHT22;27435;48.480;9.258;2023-04-06T04:23:59;-1.80;99.00
41756;DHT22;27435;48.480;9.258;2023-04-06T04:26:24;-1.80;98.90
41756;DHT22;27435;48.480;9.258;2023-04-06T04:28:50;-1.80;99.00
41756;DHT22;27435;48.480;9.258;2023-04-06T04:31:16;-1.80;99.00
41756;DHT22;27435;48.480;9.258;2023-04-06T04:33:43;-1.90;99.00
41756;DHT22;27435;48.480;9.258;2023-04-06T04:36:09;-1.90;99.00
41756;DHT22;27435;48.480;9.258;2023-04-06T04:38:35;-2.00;99.00
41756;DHT22;27435;48.480;9.258;2023-04-06T04:41:01;-1.90;99.00
41756;DHT22;27435;48.480;9.258;2023-04-06T04:43:27;-1.90;99.00
41756;DHT22;27435;48.480;9.258;2023-04-06T04:45:52;-1.90;98.90
41756;DHT22;27435;48.480;9.258;2023-04-06T04:48:18;-2.10;99.00
41756;DHT22;27435;48.480;9.258;2023-04-06T04:50:44;-2.20;99.00
41756;DHT22;27435;48.480;9.258;2023-04-06T04:53:09;-2.20;99.00
41756;DHT22;27435;48.480;9.258;2023-04-06T04:55:35;-2.20;99.00
41756;DHT22;27435;48.480;9.258;2023-04-06T04:58:01;-2.20;99.00
41756;DHT22;27435;48.480;9.258;2023-04-06T05:00:28;-2.20;99.00
41756;DHT22;27435;48.480;9.258;2023-04-06T05:02:53;-2.20;99.00
41756;DHT22;27435;48.480;9.258;2023-04-06T05:05:19;-2.10;99.00
41756;DHT22;27435;48.480;9.258;2023-04-06T05:07:45;-2.10;99.00
41756;DHT22;27435;48.480;9.258;2023-04-06T05:10:11;-2.10;99.00
41756;DHT22;27435;48.480;9.258;2023-04-06T05:12:37;-2.20;99.00
41756;DHT22;27435;48.480;9.258;2023-04-06T05:15:03;-2.10;99.00
41756;DHT22;27435;48.480;9.258;2023-04-06T05:17:29;-2.10;99.00
41756;DHT22;27435;48.480;9.258;2023-04-06T05:19:55;-2.10;99.00
41756;DHT22;27435;48.480;9.258;2023-04-06T05:22:20;-2.00;99.00
41756;DHT22;27435;48.480;9.258;2023-04-06T05:24:46;-2.00;99.00
41756;DHT22;27435;48.480;9.258;2023-04-06T05:27:12;-1.90;99.00
41756;DHT22;27435;48.480;9.258;2023-04-06T05:29:37;-1.90;99.00
41756;DHT22;27435;48.480;9.258;2023-04-06T05:32:03;-1.90;99.00
41756;DHT22;27435;48.480;9.258;2023-04-06T05:34:29;-1.90;99.00
41756;DHT22;27435;48.480;9.258;2023-04-06T05:36:55;-2.00;99.00
41756;DHT22;27435;48.480;9.258;2023-04-06T05:39:20;-2.00;99.00
41756;DHT22;27435;48.480;9.258;2023-04-06T05:41:46;-2.00;99.00
41756;DHT22;27435;48.480;9.258;2023-04-06T05:44:12;-1.90;99.00
41756;DHT22;27435;48.480;9.258;2023-04-06T05:46:37;-1.80;99.00
41756;DHT22;27435;48.480;9.258;2023-04-06T05:49:03;-1.70;99.00
41756;DHT22;27435;48.480;9.258;2023-04-06T05:51:29;-1.80;99.00
41756;DHT22;27435;48.480;9.258;2023-04-06T05:53:54;-1.90;99.00
41756;DHT22;27435;48.480;9.258;2023-04-06T05:56:20;-1.80;99.00
41756;DHT22;27435;48.480;9.258;2023-04-06T05:58:46;-1.70;99.00
41756;DHT22;27435;48.480;9.258;2023-04-06T06:01:11;-1.70;99.00
41756;DHT22;27435;48.480;9.258;2023-04-06T06:03:37;-1.50;99.00
41756;DHT22;27435;48.480;9.258;2023-04-06T06:06:04;-1.50;99.00
41756;DHT22;27435;48.480;9.258;2023-04-06T06:08:30;-1.50;99.00
41756;DHT22;27435;48.480;9.258;2023-04-06T06:10:56;-1.30;99.00
41756;DHT22;27435;48.480;9.258;2023-04-06T06:13:22;-1.10;98.90
41756;DHT22;27435;48.480;9.258;2023-04-06T06:15:49;-1.10;98.00
41756;DHT22;27435;48.480;9.258;2023-04-06T06:18:15;-1.00;98.50
41756;DHT22;27435;48.480;9.258;2023-04-06T06:20:41;-0.80;99.00
41756;DHT22;27435;48.480;9.258;2023-04-06T06:23:06;-0.50;98.80
41756;DHT22;27435;48.480;9.258;2023-04-06T06:25:32;-0.20;97.90
41756;DHT22;27435;48.480;9.258;2023-04-06T06:27:58;0.10;97.40
41756;DHT22;27435;48.480;9.258;2023-04-06T06:30:24;0.50;96.80
41756;DHT22;27435;48.480;9.258;2023-04-06T06:32:51;0.80;95.40
41756;DHT22;27435;48.480;9.258;2023-04-06T06:35:17;1.00;93.60
41756;DHT22;27435;48.480;9.258;2023-04-06T06:37:43;1.20;92.30
41756;DHT22;27435;48.480;9.258;2023-04-06T06:40:10;1.30;91.60
41756;DHT22;27435;48.480;9.258;2023-04-06T06:42:38;1.30;90.70
41756;DHT22;27435;48.480;9.258;2023-04-06T06:45:05;1.30;90.80
41756;DHT22;27435;48.480;9.258;2023-04-06T06:47:31;1.40;89.60
41756;DHT22;27435;48.480;9.258;2023-04-06T06:49:56;1.50;88.10
41756;DHT22;27435;48.480;9.258;2023-04-06T06:52:22;1.70;87.80
41756;DHT22;27435;48.480;9.258;2023-04-06T06:54:49;2.00;87.30
41756;DHT22;27435;48.480;9.258;2023-04-06T06:57:15;2.10;86.30
41756;DHT22;27435;48.480;9.258;2023-04-06T06:59:40;2.20;86.00
41756;DHT22;27435;48.480;9.258;2023-04-06T07:02:06;2.40;85.40
41756;DHT22;27435;48.480;9.258;2023-04-06T07:04:32;2.50;85.00
41756;DHT22;27435;48.480;9.258;2023-04-06T07:06:57;2.70;84.60
41756;DHT22;27435;48.480;9.258;2023-04-06T07:09:23;2.90;84.60
41756;DHT22;27435;48.480;9.258;2023-04-06T07:11:49;3.00;83.90
41756;DHT22;27435;48.480;9.258;2023-04-06T07:14:15;3.00;83.10
41756;DHT22;27435;48.480;9.258;2023-04-06T07:16:41;3.20;82.70
41756;DHT22;27435;48.480;9.258;2023-04-06T07:19:07;3.30;82.40
41756;DHT22;27435;48.480;9.258;2023-04-06T07:21:34;3.30;82.30
41756;DHT22;27435;48.480;9.258;2023-04-06T07:24:00;3.30;81.50
41756;DHT22;27435;48.480;9.258;2023-04-06T07:26:27;3.20;82.00
41756;DHT22;27435;48.480;9.258;2023-04-06T07:28:52;3.50;80.70
41756;DHT22;27435;48.480;9.258;2023-04-06T07:31:18;3.60;79.80
41756;DHT22;27435;48.480;9.258;2023-04-06T07:33:44;3.90;78.70
41756;DHT22;27435;48.480;9.258;2023-04-06T07:36:10;4.00;77.80
41756;DHT22;27435;48.480;9.258;2023-04-06T07:38:36;4.10;77.90
41756;DHT22;27435;48.480;9.258;2023-04-06T07:41:02;4.30;77.90
41756;DHT22;27435;48.480;9.258;2023-04-06T07:43:29;4.60;75.70
41756;DHT22;27435;48.480;9.258;2023-04-06T07:45:56;4.70;75.30
41756;DHT22;27435;48.480;9.258;2023-04-06T07:48:23;4.70;75.20
41756;DHT22;27435;48.480;9.258;2023-04-06T07:50:48;4.70;75.30
41756;DHT22;27435;48.480;9.258;2023-04-06T07:53:14;4.80;76.00
41756;DHT22;27435;48.480;9.258;2023-04-06T07:55:40;5.00;74.90
41756;DHT22;27435;48.480;9.258;2023-04-06T07:58:06;5.10;74.10
41756;DHT22;27435;48.480;9.258;2023-04-06T08:00:32;5.20;72.30
41756;DHT22;27435;48.480;9.258;2023-04-06T08:02:57;5.00;73.30
41756;DHT22;27435;48.480;9.258;2023-04-06T08:05:23;5.20;72.90
41756;DHT22;27435;48.480;9.258;2023-04-06T08:07:49;5.30;71.20
41756;DHT22;27435;48.480;9.258;2023-04-06T08:10:14;5.50;73.00
41756;DHT22;27435;48.480;9.258;2023-04-06T08:12:40;5.60;73.00
41756;DHT22;27435;48.480;9.258;2023-04-06T08:15:06;5.70;72.90
41756;DHT22;27435;48.480;9.258;2023-04-06T08:17:33;6.00;72.50
41756;DHT22;27435;48.480;9.258;2023-04-06T08:19:59;6.30;71.30
41756;DHT22;27435;48.480;9.258;2023-04-06T08:22:25;6.60;70.70
41756;DHT22;27435;48.480;9.258;2023-04-06T08:24:51;6.70;69.90
41756;DHT22;27435;48.480;9.258;2023-04-06T08:27:17;6.70;70.50
41756;DHT22;27435;48.480;9.258;2023-04-06T08:29:43;6.90;70.30
41756;DHT22;27435;48.480;9.258;2023-04-06T08:32:08;7.00;70.30
41756;DHT22;27435;48.480;9.258;2023-04-06T08:34:34;7.10;67.70
41756;DHT22;27435;48.480;9.258;2023-04-06T08:37:00;7.40;66.00
41756;DHT22;27435;48.480;9.258;2023-04-06T08:39:26;7.60;64.20
41756;DHT22;27435;48.480;9.258;2023-04-06T08:41:53;7.70;63.00
41756;DHT22;27435;48.480;9.258;2023-04-06T08:44:22;7.80;63.40
41756;DHT22;27435;48.480;9.258;2023-04-06T08:46:48;7.80;62.90
41756;DHT22;27435;48.480;9.258;2023-04-06T08:49:14;7.70;62.40
41756;DHT22;27435;48.480;9.258;2023-04-06T08:51:42;7.70;62.20
41756;DHT22;27435;48.480;9.258;2023-04-06T08:54:08;7.80;61.30
41756;DHT22;27435;48.480;9.258;2023-04-06T08:56:37;7.90;60.90
41756;DHT22;27435;48.480;9.258;2023-04-06T08:59:03;8.00;59.70
41756;DHT22;27435;48.480;9.258;2023-04-06T09:01:30;8.00;60.00
41756;DHT22;27435;48.480;9.258;2023-04-06T09:03:58;8.10;60.50
41756;DHT22;27435;48.480;9.258;2023-04-06T09:06:30;8.30;60.30
41756;DHT22;27435;48.480;9.258;2023-04-06T09:08:57;8.60;59.70
41756;DHT22;27435;48.480;9.258;2023-04-06T09:11:23;8.60;59.90
41756;DHT22;27435;48.480;9.258;2023-04-06T09:16:15;8.80;59.20
41756;DHT22;27435;48.480;9.258;2023-04-06T09:18:41;8.80;60.00
41756;DHT22;27435;48.480;9.258;2023-04-06T09:21:08;9.10;59.30
41756;DHT22;27435;48.480;9.258;2023-04-06T09:23:34;9.10;59.00
41756;DHT22;27435;48.480;9.258;2023-04-06T09:26:15;9.00;59.10
41756;DHT22;27435;48.480;9.258;2023-04-06T09:31:21;9.20;59.00
41756;DHT22;27435;48.480;9.258;2023-04-06T09:33:48;9.40;58.20
41756;DHT22;27435;48.480;9.258;2023-04-06T09:36:13;9.40;57.60
41756;DHT22;27435;48.480;9.258;2023-04-06T09:39:03;9.40;55.30
41756;DHT22;27435;48.480;9.258;2023-04-06T09:41:34;9.50;56.20
41756;DHT22;27435;48.480;9.258;2023-04-06T09:44:07;9.60;56.10
41756;DHT22;27435;48.480;9.258;2023-04-06T09:46:43;9.80;56.00
41756;DHT22;27435;48.480;9.258;2023-04-06T09:49:10;10.00;55.30
41756;DHT22;27435;48.480;9.258;2023-04-06T09:51:40;9.90;54.90
41756;DHT22;27435;48.480;9.258;2023-04-06T09:54:07;10.00;54.90
41756;DHT22;27435;48.480;9.258;2023-04-06T09:56:56;9.80;54.10
41756;DHT22;27435;48.480;9.258;2023-04-06T10:02:34;9.50;55.00
41756;DHT22;27435;48.480;9.258;2023-04-06T10:07:54;10.00;54.20
41756;DHT22;27435;48.480;9.258;2023-04-06T10:10:22;10.10;52.70
41756;DHT22;27435;48.480;9.258;2023-04-06T10:12:48;10.20;53.60
41756;DHT22;27435;48.480;9.258;2023-04-06T10:15:15;10.10;52.00
41756;DHT22;27435;48.480;9.258;2023-04-06T10:17:41;10.00;52.50
41756;DHT22;27435;48.480;9.258;2023-04-06T10:20:09;10.00;52.50
41756;DHT22;27435;48.480;9.258;2023-04-06T10:22:41;10.10;52.60
41756;DHT22;27435;48.480;9.258;2023-04-06T10:25:09;10.10;52.30
41756;DHT22;27435;48.480;9.258;2023-04-06T10:27:35;10.20;52.50
41756;DHT22;27435;48.480;9.258;2023-04-06T10:30:05;10.30;52.00
41756;DHT22;27435;48.480;9.258;2023-04-06T10:32:36;10.20;52.30
41756;DHT22;27435;48.480;9.258;2023-04-06T10:35:09;10.40;52.50
41756;DHT22;27435;48.480;9.258;2023-04-06T10:37:52;10.20;51.70
41756;DHT22;27435;48.480;9.258;2023-04-06T10:40:27;10.20;50.90
41756;DHT22;27435;48.480;9.258;2023-04-06T10:42:54;10.10;51.30
41756;DHT22;27435;48.480;9.258;2023-04-06T10:45:24;10.20;52.70
41756;DHT22;27435;48.480;9.258;2023-04-06T10:47:54;10.40;52.30
41756;DHT22;27435;48.480;9.258;2023-04-06T10:50:20;10.50;52.30
41756;DHT22;27435;48.480;9.258;2023-04-06T10:52:46;10.50;52.50
41756;DHT22;27435;48.480;9.258;2023-04-06T10:55:16;10.60;52.40
41756;DHT22;27435;48.480;9.258;2023-04-06T10:57:42;10.50;51.60
41756;DHT22;27435;48.480;9.258;2023-04-06T11:00:15;10.70;51.60
41756;DHT22;27435;48.480;9.258;2023-04-06T11:02:41;10.50;51.60
41756;DHT22;27435;48.480;9.258;2023-04-06T11:05:07;10.70;51.40
41756;DHT22;27435;48.480;9.258;2023-04-06T11:07:33;10.80;50.50
41756;DHT22;27435;48.480;9.258;2023-04-06T11:09:59;10.90;50.70
41756;DHT22;27435;48.480;9.258;2023-04-06T11:12:28;10.90;50.00
41756;DHT22;27435;48.480;9.258;2023-04-06T11:15:00;11.10;49.00
41756;DHT22;27435;48.480;9.258;2023-04-06T11:17:36;11.10;47.50
41756;DHT22;27435;48.480;9.258;2023-04-06T11:20:03;11.10;47.80
41756;DHT22;27435;48.480;9.258;2023-04-06T11:22:30;11.20;48.70
41756;DHT22;27435;48.480;9.258;2023-04-06T11:25:06;11.20;47.00
41756;DHT22;27435;48.480;9.258;2023-04-06T11:27:34;11.00;48.20
41756;DHT22;27435;48.480;9.258;2023-04-06T11:30:00;11.20;48.50
41756;DHT22;27435;48.480;9.258;2023-04-06T11:32:26;11.30;48.50
41756;DHT22;27435;48.480;9.258;2023-04-06T11:34:52;11.30;49.70
41756;DHT22;27435;48.480;9.258;2023-04-06T11:37:18;11.20;48.60
41756;DHT22;27435;48.480;9.258;2023-04-06T11:39:48;10.80;48.00
41756;DHT22;27435;48.480;9.258;2023-04-06T11:42:29;10.70;49.20
41756;DHT22;27435;48.480;9.258;2023-04-06T11:44:56;11.10;49.10
41756;DHT22;27435;48.480;9.258;2023-04-06T11:47:33;11.50;48.70
41756;DHT22;27435;48.480;9.258;2023-04-06T11:50:12;11.70;47.50
41756;DHT22;27435;48.480;9.258;2023-04-06T11:52:39;11.80;47.40
41756;DHT22;27435;48.480;9.258;2023-04-06T11:55:16;11.90;47.00
41756;DHT22;27435;48.480;9.258;2023-04-06T11:57:43;11.80;46.30
41756;DHT22;27435;48.480;9.258;2023-04-06T12:00:09;11.60;46.70
41756;DHT22;27435;48.480;9.258;2023-04-06T12:02:37;12.10;47.60
41756;DHT22;27435;48.480;9.258;2023-04-06T12:05:04;12.30;46.80
41756;DHT22;27435;48.480;9.258;2023-04-06T12:07:30;12.20;45.70
41756;DHT22;27435;48.480;9.258;2023-04-06T12:09:56;12.10;46.30
41756;DHT22;27435;48.480;9.258;2023-04-06T12:12:22;12.50;45.80
41756;DHT22;27435;48.480;9.258;2023-04-06T12:14:48;12.40;44.90
41756;DHT22;27435;48.480;9.258;2023-04-06T12:17:13;12.50;45.40
41756;DHT22;27435;48.480;9.258;2023-04-06T12:19:39;12.40;45.50
41756;DHT22;27435;48.480;9.258;2023-04-06T12:22:06;12.80;44.60
41756;DHT22;27435;48.480;9.258;2023-04-06T12:24:31;13.00;44.50
41756;DHT22;27435;48.480;9.258;2023-04-06T12:26:57;13.20;44.10
41756;DHT22;27435;48.480;9.258;2023-04-06T12:29:24;13.30;44.40
41756;DHT22;27435;48.480;9.258;2023-04-06T12:31:50;13.30;43.70
41756;DHT22;27435;48.480;9.258;2023-04-06T12:34:16;13.70;43.10
41756;DHT22;27435;48.480;9.258;2023-04-06T12:36:42;13.70;43.80
41756;DHT22;27435;48.480;9.258;2023-04-06T12:39:07;13.10;43.60
41756;DHT22;27435;48.480;9.258;2023-04-06T12:41:33;13.20;44.50
41756;DHT22;27435;48.480;9.258;2023-04-06T12:44:00;13.40;44.40
41756;DHT22;27435;48.480;9.258;2023-04-06T12:46:26;13.70;44.70
41756;DHT22;27435;48.480;9.258;2023-04-06T12:48:52;13.90;43.50
41756;DHT22;27435;48.480;9.258;2023-04-06T12:51:22;14.00;43.30
41756;DHT22;27435;48.480;9.258;2023-04-06T12:53:48;14.20;42.70
41756;DHT22;27435;48.480;9.258;2023-04-06T12:56:18;14.40;42.90
41756;DHT22;27435;48.480;9.258;2023-04-06T12:58:44;14.10;42.10
41756;DHT22;27435;48.480;9.258;2023-04-06T13:01:10;14.10;42.20
41756;DHT22;27435;48.480;9.258;2023-04-06T13:03:40;13.50;43.40
41756;DHT22;27435;48.480;9.258;2023-04-06T13:06:06;13.30;42.50
41756;DHT22;27435;48.480;9.258;2023-04-06T13:08:34;13.00;42.90
41756;DHT22;27435;48.480;9.258;2023-04-06T13:10:59;13.00;44.00
41756;DHT22;27435;48.480;9.258;2023-04-06T13:13:27;13.20;42.70
41756;DHT22;27435;48.480;9.258;2023-04-06T13:15:55;12.80;42.90
41756;DHT22;27435;48.480;9.258;2023-04-06T13:18:21;12.90;44.20
41756;DHT22;27435;48.480;9.258;2023-04-06T13:20:48;12.70;43.10
41756;DHT22;27435;48.480;9.258;2023-04-06T13:23:15;12.90;44.30
41756;DHT22;27435;48.480;9.258;2023-04-06T13:25:41;13.40;42.60
41756;DHT22;27435;48.480;9.258;2023-04-06T13:28:07;13.60;43.10
41756;DHT22;27435;48.480;9.258;2023-04-06T13:30:33;14.00;42.00
41756;DHT22;27435;48.480;9.258;2023-04-06T13:32:59;13.90;41.80
41756;DHT22;27435;48.480;9.258;2023-04-06T13:35:24;13.70;41.90
41756;DHT22;27435;48.480;9.258;2023-04-06T13:37:50;14.10;41.90
41756;DHT22;27435;48.480;9.258;2023-04-06T13:40:17;13.80;41.30
41756;DHT22;27435;48.480;9.258;2023-04-06T13:42:43;14.20;40.00
41756;DHT22;27435;48.480;9.258;2023-04-06T13:45:10;14.70;39.20
41756;DHT22;27435;48.480;9.258;2023-04-06T13:47:36;15.00;38.70
41756;DHT22;27435;48.480;9.258;2023-04-06T13:50:02;15.20;35.80
41756;DHT22;27435;48.480;9.258;2023-04-06T13:52:29;14.80;37.50
41756;DHT22;27435;48.480;9.258;2023-04-06T13:54:55;14.80;37.10
41756;DHT22;27435;48.480;9.258;2023-04-06T13:57:20;14.70;35.90
41756;DHT22;27435;48.480;9.258;2023-04-06T13:59:46;14.40;36.70
41756;DHT22;27435;48.480;9.258;2023-04-06T14:02:12;14.60;37.00
41756;DHT22;27435;48.480;9.258;2023-04-06T14:04:38;14.90;37.10
41756;DHT22;27435;48.480;9.258;2023-04-06T14:07:03;15.00;36.40
41756;DHT22;27435;48.480;9.258;2023-04-06T14:09:33;14.80;35.50
41756;DHT22;27435;48.480;9.258;2023-04-06T14:11:59;15.00;36.40
41756;DHT22;27435;48.480;9.258;2023-04-06T14:14:24;15.00;36.20
41756;DHT22;27435;48.480;9.258;2023-04-06T14:16:51;15.40;37.00
41756;DHT22;27435;48.480;9.258;2023-04-06T14:19:17;15.90;36.00
41756;DHT22;27435;48.480;9.258;2023-04-06T14:21:46;16.10;35.00
41756;DHT22;27435;48.480;9.258;2023-04-06T14:24:12;15.70;33.90
41756;DHT22;27435;48.480;9.258;2023-04-06T14:26:39;15.20;35.00
41756;DHT22;27435;48.480;9.258;2023-04-06T14:29:07;15.10;34.30
41756;DHT22;27435;48.480;9.258;2023-04-06T14:31:33;15.20;33.50
41756;DHT22;27435;48.480;9.258;2023-04-06T14:34:01;15.40;33.60
41756;DHT22;27435;48.480;9.258;2023-04-06T14:36:26;15.60;33.60
41756;DHT22;27435;48.480;9.258;2023-04-06T14:38:56;15.70;33.30
41756;DHT22;27435;48.480;9.258;2023-04-06T14:41:23;15.50;33.50
41756;DHT22;27435;48.480;9.258;2023-04-06T14:43:50;15.30;33.70
41756;DHT22;27435;48.480;9.258;2023-04-06T14:46:18;15.50;34.30
41756;DHT22;27435;48.480;9.258;2023-04-06T14:48:44;15.50;34.60
41756;DHT22;27435;48.480;9.258;2023-04-06T14:51:10;15.80;34.40
41756;DHT22;27435;48.480;9.258;2023-04-06T14:53:36;16.20;33.80
41756;DHT22;27435;48.480;9.258;2023-04-06T14:56:02;16.10;33.20
41756;DHT22;27435;48.480;9.258;2023-04-06T14:58:28;15.80;33.80
41756;DHT22;27435;48.480;9.258;2023-04-06T15:00:58;15.40;33.70
41756;DHT22;27435;48.480;9.258;2023-04-06T15:03:28;15.20;34.30
41756;DHT22;27435;48.480;9.258;2023-04-06T15:05:56;14.50;35.20
41756;DHT22;27435;48.480;9.258;2023-04-06T15:08:23;14.60;35.80
41756;DHT22;27435;48.480;9.258;2023-04-06T15:10:49;15.00;34.80
41756;DHT22;27435;48.480;9.258;2023-04-06T15:13:16;15.00;33.80
41756;DHT22;27435;48.480;9.258;2023-04-06T15:15:42;15.10;34.80
41756;DHT22;27435;48.480;9.258;2023-04-06T15:18:09;15.10;35.40
41756;DHT22;27435;48.480;9.258;2023-04-06T15:20:34;15.00;35.70
41756;DHT22;27435;48.480;9.258;2023-04-06T15:23:01;15.30;35.50
41756;DHT22;27435;48.480;9.258;2023-04-06T15:25:28;14.80;34.70
41756;DHT22;27435;48.480;9.258;2023-04-06T15:27:54;14.60;35.60
41756;DHT22;27435;48.480;9.258;2023-04-06T15:30:20;14.50;36.00
41756;DHT22;27435;48.480;9.258;2023-04-06T15:32:55;14.30;35.90
41756;DHT22;27435;48.480;9.258;2023-04-06T15:35:21;13.80;36.90
41756;DHT22;27435;48.480;9.258;2023-04-06T15:37:47;14.00;37.10
41756;DHT22;27435;48.480;9.258;2023-04-06T15:40:13;14.10;36.50
41756;DHT22;27435;48.480;9.258;2023-04-06T15:42:41;14.10;36.80